ADDS METAR Data INFO
IDs: Format: Raw Decoded Include TAF

Data at: 0956 UTC 12 Dec 2017

METAR for:KFLL (Ft Lauderdale-Hollyw, FL, US)
Text:KFLL 120953Z 32004KT 10SM CLR 10/08 A3008 RMK AO2 SLP186 T01000078 $
Temperature: 10.0°C ( 50°F)
Dewpoint: 7.8°C ( 46°F) [RH = 86%]
Pressure (altimeter):30.08 inches Hg (1018.7 mb) [Sea level pressure: 1018.6 mb]
Winds:from the NW (320 degrees) at 5 MPH (4 knots; 2.1 m/s)
Visibility:10 or more sm (16+ km)
Ceiling:at least 12,000 feet AGL
Clouds:sky clear below 12,000 feet AGL
QC Flag:SOME DATA ABOVE MAY BE INACCURATE!!!"$" is an indication the sensor requires maintenance.